createdAt,value
2022-09-21T00:01:08.145Z,8.83
2022-09-21T00:04:13.190Z,7.03
2022-09-21T00:07:16.697Z,6.97
2022-09-21T00:10:21.695Z,6.67
2022-09-21T00:13:26.597Z,6.80
2022-09-21T00:16:31.788Z,5.30
2022-09-21T00:19:38.006Z,7.37
2022-09-21T00:22:42.255Z,6.37
2022-09-21T00:25:45.799Z,9.47
2022-09-21T00:28:54.810Z,5.47
2022-09-21T00:31:58.562Z,6.60
2022-09-21T00:35:04.111Z,6.47
2022-09-21T00:38:07.687Z,6.50
2022-09-21T00:41:12.943Z,7.40
2022-09-21T00:44:32.675Z,8.17
2022-09-21T00:47:40.123Z,7.40
2022-09-21T00:50:53.909Z,5.57
2022-09-21T00:54:03.738Z,6.60
2022-09-21T00:57:08.313Z,7.40
2022-09-21T01:00:13.010Z,5.57
2022-09-21T01:03:16.668Z,6.23
2022-09-21T01:06:22.578Z,7.13
2022-09-21T01:09:26.979Z,7.40
2022-09-21T01:13:01.971Z,6.83
2022-09-21T01:16:17.897Z,6.57
2022-09-21T01:20:03.669Z,6.03
2022-09-21T01:23:39.228Z,6.37
2022-09-21T01:27:24.429Z,5.97
2022-09-21T01:30:35.934Z,5.73
2022-09-21T01:33:47.411Z,8.63
2022-09-21T01:36:56.343Z,6.30
2022-09-21T01:40:07.400Z,7.37
2022-09-21T01:43:18.015Z,6.23
2022-09-21T01:46:29.940Z,5.97
2022-09-21T01:49:38.905Z,7.43
2022-09-21T01:52:51.533Z,6.93
2022-09-21T01:56:00.623Z,8.07
2022-09-21T01:59:14.943Z,5.33
2022-09-21T02:02:26.604Z,4.93
2022-09-21T02:05:31.975Z,4.93
2022-09-21T02:08:37.510Z,6.50
2022-09-21T02:11:44.027Z,4.37
2022-09-21T02:14:48.240Z,7.33
2022-09-21T02:18:06.389Z,4.83
2022-09-21T02:21:20.851Z,5.57
2022-09-21T02:24:39.407Z,5.33
2022-09-21T02:27:54.508Z,4.57
2022-09-21T02:31:13.973Z,6.33
2022-09-21T02:34:29.031Z,5.97
2022-09-21T02:37:44.963Z,7.53
2022-09-21T02:40:55.130Z,6.97
2022-09-21T02:44:05.406Z,6.60
2022-09-21T02:47:16.912Z,5.60
2022-09-21T02:50:27.706Z,6.03
2022-09-21T02:53:37.982Z,7.07
2022-09-21T02:56:45.418Z,6.83
2022-09-21T02:59:49.943Z,19.27
2022-09-21T03:02:53.498Z,24.77
2022-09-21T03:05:59.114Z,34.17
2022-09-21T03:09:02.716Z,28.67
2022-09-21T03:12:07.407Z,22.10
2022-09-21T03:15:11.810Z,21.20
2022-09-21T03:18:16.275Z,10.17
2022-09-21T03:21:22.066Z,9.97
2022-09-21T03:24:39.560Z,10.67
2022-09-21T03:27:43.107Z,8.80
2022-09-21T03:30:47.139Z,7.30
2022-09-21T03:33:50.891Z,8.90
2022-09-21T03:36:55.809Z,9.17
2022-09-21T03:40:00.357Z,9.70
2022-09-21T03:43:04.262Z,9.10
2022-09-21T03:46:07.811Z,7.30
2022-09-21T03:49:11.414Z,6.50
2022-09-21T03:52:16.390Z,8.70
2022-09-21T03:55:20.094Z,11.67
2022-09-21T03:58:23.635Z,12.67
2022-09-21T04:01:27.909Z,5.97
2022-09-21T04:04:31.570Z,8.17
2022-09-21T04:07:37.828Z,8.30
2022-09-21T04:10:43.339Z,6.77
2022-09-21T04:13:52.402Z,9.57
2022-09-21T04:16:56.743Z,21.90
2022-09-21T04:20:00.516Z,22.23
2022-09-21T04:23:05.668Z,24.00
2022-09-21T04:26:21.036Z,12.47
2022-09-21T04:29:24.775Z,10.67
2022-09-21T04:32:28.411Z,7.80
2022-09-21T04:35:32.026Z,9.57
2022-09-21T04:38:37.050Z,12.57
2022-09-21T04:41:40.706Z,9.47
2022-09-21T04:44:44.299Z,9.57
2022-09-21T04:47:47.994Z,7.90
2022-09-21T04:50:52.320Z,7.83
2022-09-21T04:53:57.350Z,15.03
2022-09-21T04:57:00.890Z,8.77
2022-09-21T05:00:05.619Z,11.40
2022-09-21T05:03:09.153Z,6.03
2022-09-21T05:06:13.563Z,4.57
2022-09-21T05:09:35.769Z,5.07
2022-09-21T05:12:41.192Z,8.10
2022-09-21T05:15:44.998Z,8.23
2022-09-21T05:18:48.685Z,8.37
2022-09-21T05:21:52.235Z,6.10
2022-09-21T05:24:57.116Z,10.53
2022-09-21T05:28:01.335Z,7.03
2022-09-21T05:31:28.471Z,6.80
2022-09-21T05:34:50.078Z,6.57
2022-09-21T05:38:00.534Z,8.63
2022-09-21T05:41:06.678Z,5.57
2022-09-21T05:44:15.515Z,5.93
2022-09-21T05:47:40.736Z,6.10
2022-09-21T05:50:57.453Z,9.53
2022-09-21T05:54:15.894Z,8.77
2022-09-21T05:57:37.225Z,10.23
2022-09-21T06:00:54.875Z,11.80
2022-09-21T06:04:00.589Z,12.73
2022-09-21T06:07:04.190Z,9.40
2022-09-21T06:10:09.708Z,9.10
2022-09-21T06:13:14.577Z,10.30
2022-09-21T06:16:18.187Z,7.13
2022-09-21T06:19:21.985Z,7.23
2022-09-21T06:22:25.603Z,5.10
2022-09-21T06:25:29.264Z,7.00
2022-09-21T06:28:34.215Z,5.40
2022-09-21T06:31:37.871Z,6.27
2022-09-21T06:34:42.885Z,4.90
2022-09-21T06:37:46.497Z,6.83
2022-09-21T06:40:50.787Z,5.37
2022-09-21T06:43:58.035Z,9.80
2022-09-21T06:47:01.846Z,6.60
2022-09-21T06:50:05.877Z,9.60
2022-09-21T06:53:09.467Z,9.67
2022-09-21T06:56:13.351Z,9.23
2022-09-21T06:59:18.320Z,10.97
2022-09-21T07:02:22.039Z,13.30
2022-09-21T07:05:25.834Z,11.77
2022-09-21T07:11:54.248Z,14.07
2022-09-21T07:14:59.156Z,14.00
2022-09-21T07:18:11.316Z,15.40
2022-09-21T07:21:15.011Z,15.53
2022-09-21T07:24:18.570Z,17.27
2022-09-21T07:27:22.378Z,16.57
2022-09-21T07:30:27.907Z,17.27
2022-09-21T07:33:36.001Z,17.77
2022-09-21T07:36:39.816Z,19.33
2022-09-21T07:39:43.482Z,20.33
2022-09-21T07:42:47.038Z,20.13
2022-09-21T07:45:56.768Z,25.13
2022-09-21T07:49:00.659Z,22.67
2022-09-21T07:52:07.328Z,17.97
2022-09-21T07:55:14.174Z,16.60
2022-09-21T07:58:35.495Z,16.93
2022-09-21T08:01:42.615Z,15.83
2022-09-21T08:04:46.183Z,22.67
2022-09-21T08:07:49.829Z,15.23
2022-09-21T08:10:54.670Z,14.30
2022-09-21T08:14:00.886Z,16.60
2022-09-21T08:17:06.402Z,18.53
2022-09-21T08:20:11.309Z,13.97
2022-09-21T08:23:17.226Z,11.50
2022-09-21T08:26:23.875Z,22.10
2022-09-21T08:29:29.353Z,12.20
2022-09-21T08:32:50.415Z,16.57
2022-09-21T08:35:55.967Z,12.63
2022-09-21T08:38:59.619Z,14.37
2022-09-21T08:42:39.438Z,15.90
2022-09-21T08:45:47.166Z,14.90
2022-09-21T08:49:01.219Z,21.90
2022-09-21T08:52:10.445Z,24.13
2022-09-21T08:55:20.883Z,18.67
2022-09-21T08:58:27.378Z,17.53
2022-09-21T09:01:49.174Z,13.90
2022-09-21T09:05:07.995Z,13.43
2022-09-21T09:08:47.043Z,10.77
2022-09-21T09:12:15.474Z,10.40
2022-09-21T09:15:50.996Z,10.97
2022-09-21T09:19:01.446Z,8.53
2022-09-21T09:22:16.876Z,11.30
2022-09-21T09:25:24.727Z,12.23
2022-09-21T09:28:38.199Z,6.40
2022-09-21T09:31:43.725Z,8.40
2022-09-21T09:34:58.263Z,10.07
2022-09-21T09:38:13.199Z,8.80
2022-09-21T09:41:43.239Z,4.57
2022-09-21T09:45:11.879Z,7.90
2022-09-21T09:48:43.856Z,8.33
2022-09-21T09:51:47.978Z,5.20
2022-09-21T09:54:54.123Z,7.13
2022-09-21T09:57:59.125Z,5.23
2022-09-21T10:01:02.693Z,6.63
2022-09-21T10:04:10.095Z,10.30
2022-09-21T10:07:20.492Z,7.13
2022-09-21T10:10:35.730Z,3.87
2022-09-21T10:13:41.426Z,6.30
2022-09-21T10:16:46.191Z,4.80
2022-09-21T10:19:50.084Z,3.87
2022-09-21T10:22:57.154Z,3.73
2022-09-21T10:26:12.102Z,4.67
2022-09-21T10:29:30.467Z,5.27
2022-09-21T10:32:35.175Z,5.20
2022-09-21T10:35:52.006Z,4.50
2022-09-21T10:38:55.586Z,6.70
2022-09-21T10:42:05.852Z,5.40
2022-09-21T10:45:19.493Z,6.17
2022-09-21T10:48:26.314Z,5.13
2022-09-21T10:51:34.887Z,3.63
2022-09-21T10:54:43.043Z,6.50
2022-09-21T10:57:49.861Z,4.17
2022-09-21T11:00:57.602Z,5.90
2022-09-21T11:04:06.976Z,5.40
2022-09-21T11:07:23.605Z,2.67
2022-09-21T11:10:40.604Z,3.93
2022-09-21T11:13:56.620Z,7.07
2022-09-21T11:17:12.960Z,6.00
2022-09-21T11:20:31.738Z,5.07
2022-09-21T11:23:53.785Z,4.93
2022-09-21T11:27:05.128Z,2.97
2022-09-21T11:30:15.431Z,5.80
2022-09-21T11:33:41.707Z,5.70
2022-09-21T11:37:02.016Z,5.70
2022-09-21T11:40:26.786Z,5.87
2022-09-21T11:44:13.390Z,5.37
2022-09-21T11:48:01.754Z,6.30
2022-09-21T11:51:28.426Z,7.00
2022-09-21T11:55:08.435Z,3.63
2022-09-21T11:58:26.027Z,3.73
2022-09-21T12:01:54.682Z,7.03
2022-09-21T12:05:13.519Z,6.70
2022-09-21T12:08:52.558Z,5.37
2022-09-21T12:12:08.737Z,2.80
2022-09-21T12:15:21.540Z,4.97
2022-09-21T12:18:41.313Z,3.33
2022-09-21T12:21:53.887Z,5.00
2022-09-21T12:25:04.792Z,3.17
2022-09-21T12:28:19.381Z,4.80
2022-09-21T12:31:33.526Z,5.03
2022-09-21T12:34:44.359Z,4.10
2022-09-21T12:37:58.679Z,4.10
2022-09-21T12:41:16.056Z,3.40
2022-09-21T12:44:27.300Z,2.00
2022-09-21T12:47:45.677Z,4.20
2022-09-21T12:50:55.741Z,3.97
2022-09-21T12:54:09.019Z,4.03
2022-09-21T12:57:49.091Z,3.80
2022-09-21T13:01:05.981Z,3.27
2022-09-21T13:04:43.249Z,2.57
2022-09-21T13:08:07.404Z,2.73
2022-09-21T13:11:13.078Z,1.63
2022-09-21T13:14:19.305Z,4.23
2022-09-21T13:17:29.235Z,5.57
2022-09-21T13:20:39.953Z,1.20
2022-09-21T13:23:44.507Z,4.23
2022-09-21T13:27:06.680Z,1.10
2022-09-21T13:30:35.170Z,3.27
2022-09-21T13:34:02.763Z,2.53
2022-09-21T13:37:33.090Z,2.87
2022-09-21T13:40:36.926Z,1.90
2022-09-21T13:44:04.281Z,1.27
2022-09-21T13:47:10.879Z,2.43
2022-09-21T13:50:25.894Z,1.27
2022-09-21T13:53:39.173Z,5.23
2022-09-21T13:56:44.825Z,3.77
2022-09-21T14:00:09.118Z,4.73
2022-09-21T14:03:28.472Z,3.80
2022-09-21T14:06:37.018Z,2.97
2022-09-21T14:09:53.929Z,2.83
2022-09-21T14:12:57.880Z,3.20
2022-09-21T14:16:55.834Z,3.13
2022-09-21T14:20:03.748Z,4.53
2022-09-21T14:23:29.015Z,1.87
2022-09-21T14:26:37.034Z,1.37
2022-09-21T14:29:49.318Z,3.70
2022-09-21T14:33:22.067Z,1.43
2022-09-21T14:36:38.195Z,1.93
2022-09-21T14:39:46.202Z,2.20
2022-09-21T14:42:50.517Z,4.37
2022-09-21T14:46:20.259Z,4.83
2022-09-21T14:50:06.148Z,2.40
2022-09-21T14:53:56.389Z,3.20
2022-09-21T14:57:48.644Z,1.97
2022-09-21T15:00:54.672Z,3.07
2022-09-21T15:04:31.800Z,1.77
2022-09-21T15:08:07.608Z,2.93
2022-09-21T15:11:22.232Z,2.40
2022-09-21T15:14:36.338Z,3.60
2022-09-21T15:17:59.202Z,3.07
2022-09-21T15:21:05.716Z,3.03
2022-09-21T15:24:22.787Z,2.80
2022-09-21T15:27:33.654Z,1.33
2022-09-21T15:30:46.752Z,2.83
2022-09-21T15:33:52.713Z,6.17
2022-09-21T15:37:09.501Z,2.27
2022-09-21T15:40:23.162Z,2.73
2022-09-21T15:43:27.531Z,3.93
2022-09-21T15:46:31.364Z,2.63
2022-09-21T15:49:36.972Z,1.47
2022-09-21T15:52:49.009Z,2.90
2022-09-21T15:55:54.704Z,2.90
2022-09-21T15:59:07.836Z,1.63
2022-09-21T16:02:22.535Z,2.47
2022-09-21T16:05:26.791Z,3.53
2022-09-21T16:08:35.287Z,2.97
2022-09-21T16:11:40.627Z,1.97
2022-09-21T16:14:55.250Z,2.83
2022-09-21T16:18:05.236Z,6.03
2022-09-21T16:21:22.606Z,3.67
2022-09-21T16:24:26.526Z,2.90
2022-09-21T16:27:34.018Z,3.50
2022-09-21T16:30:48.729Z,5.87
2022-09-21T16:34:38.783Z,3.40
2022-09-21T16:37:43.778Z,3.13
2022-09-21T16:40:48.323Z,2.57
2022-09-21T16:43:54.088Z,2.10
2022-09-21T16:47:01.038Z,2.17
2022-09-21T16:50:10.514Z,2.30
2022-09-21T16:53:14.079Z,3.50
2022-09-21T16:56:18.346Z,2.23
2022-09-21T16:59:24.124Z,1.47
2022-09-21T17:02:27.813Z,2.47
2022-09-21T17:05:31.450Z,3.30
2022-09-21T17:08:35.171Z,4.10
2022-09-21T17:11:38.742Z,3.57
2022-09-21T17:14:46.779Z,2.13
2022-09-21T17:17:51.427Z,3.60
2022-09-21T17:20:56.713Z,4.70
2022-09-21T17:24:00.247Z,2.27
2022-09-21T17:27:03.832Z,2.53
2022-09-21T17:30:15.697Z,3.97
2022-09-21T17:33:21.538Z,3.77
2022-09-21T17:36:25.220Z,2.77
2022-09-21T17:39:28.959Z,4.87
2022-09-21T17:42:39.421Z,4.10
2022-09-21T17:45:54.654Z,5.37
2022-09-21T17:48:59.178Z,4.90
2022-09-21T17:52:20.837Z,3.27
2022-09-21T17:55:25.489Z,4.53
2022-09-21T17:58:50.078Z,4.10
2022-09-21T18:01:59.424Z,4.40
2022-09-21T18:05:16.518Z,4.53
2022-09-21T18:08:20.747Z,5.03
2022-09-21T18:12:25.905Z,2.40
2022-09-21T18:15:58.070Z,2.57
2022-09-21T18:19:29.179Z,3.63
2022-09-21T18:22:52.995Z,6.53
2022-09-21T18:25:58.128Z,4.27
2022-09-21T18:29:22.521Z,5.83
2022-09-21T18:32:44.653Z,4.90
2022-09-21T18:36:10.804Z,4.93
2022-09-21T18:39:30.086Z,9.50
2022-09-21T18:42:50.119Z,5.77
2022-09-21T18:46:02.754Z,6.27
2022-09-21T18:49:20.162Z,7.70
2022-09-21T18:52:43.195Z,6.03
2022-09-21T18:55:47.708Z,7.40
2022-09-21T18:58:52.423Z,5.27
2022-09-21T19:01:59.244Z,5.17
2022-09-21T19:05:05.340Z,6.80
2022-09-21T19:08:20.909Z,5.97
2022-09-21T19:11:34.880Z,7.50
2022-09-21T19:14:51.741Z,6.33
2022-09-21T19:18:17.736Z,6.63
2022-09-21T19:21:36.602Z,7.13
2022-09-21T19:24:58.510Z,7.70
2022-09-21T19:28:11.238Z,8.87
2022-09-21T19:31:19.266Z,7.73
2022-09-21T19:34:23.296Z,6.97
2022-09-21T19:37:27.308Z,8.67
2022-09-21T19:40:35.869Z,14.03
2022-09-21T19:43:50.155Z,14.07
2022-09-21T19:47:06.717Z,17.23
2022-09-21T19:50:18.609Z,18.40
2022-09-21T19:53:41.305Z,17.17
2022-09-21T19:57:08.376Z,15.07
2022-09-21T20:00:16.815Z,13.27
2022-09-21T20:03:31.503Z,10.07
2022-09-21T20:06:46.587Z,17.00
2022-09-21T20:10:09.798Z,15.83
2022-09-21T20:13:34.034Z,18.13
2022-09-21T20:16:49.030Z,18.53
2022-09-21T20:20:01.027Z,13.70
2022-09-21T20:23:05.943Z,12.33
2022-09-21T20:26:24.884Z,14.63
2022-09-21T20:29:29.926Z,12.20
2022-09-21T20:32:36.625Z,11.53
2022-09-21T20:35:41.435Z,11.63
2022-09-21T20:38:45.763Z,9.80
2022-09-21T20:41:49.728Z,12.23
2022-09-21T20:44:55.488Z,8.70
2022-09-21T20:48:13.253Z,13.33
2022-09-21T20:51:17.079Z,7.43
2022-09-21T20:54:20.639Z,8.07
2022-09-21T20:57:24.194Z,6.10
2022-09-21T21:00:30.214Z,7.20
2022-09-21T21:03:34.620Z,6.90
2022-09-21T21:06:38.220Z,8.57
2022-09-21T21:09:41.827Z,8.00
2022-09-21T21:12:45.562Z,9.43
2022-09-21T21:15:55.531Z,6.37
2022-09-21T21:18:59.198Z,7.80
2022-09-21T21:22:02.728Z,7.40
2022-09-21T21:25:07.212Z,6.97
2022-09-21T21:28:10.835Z,7.30
2022-09-21T21:31:20.820Z,5.80
2022-09-21T21:34:25.162Z,7.30
2022-09-21T21:37:29.478Z,5.23
2022-09-21T21:40:33.130Z,6.23
2022-09-21T21:43:37.323Z,6.87
2022-09-21T21:46:42.368Z,6.33
2022-09-21T21:49:45.982Z,6.90
2022-09-21T21:52:50.175Z,7.47
2022-09-21T21:56:04.651Z,11.03
2022-09-21T21:59:08.295Z,6.20
2022-09-21T22:02:13.786Z,7.67
2022-09-21T22:05:17.638Z,5.30
2022-09-21T22:08:21.239Z,6.30
2022-09-21T22:11:27.025Z,5.97
2022-09-21T22:14:30.862Z,5.17
2022-09-21T22:17:35.871Z,5.40
2022-09-21T22:20:40.821Z,5.60
2022-09-21T22:23:45.254Z,6.93
2022-09-21T22:26:49.654Z,4.83
2022-09-21T22:29:53.248Z,5.80
2022-09-21T22:32:58.620Z,4.80
2022-09-21T22:36:06.986Z,7.33
2022-09-21T22:39:10.827Z,5.73
2022-09-21T22:42:14.471Z,6.63
2022-09-21T22:45:38.025Z,6.50
2022-09-21T22:48:43.384Z,5.97
2022-09-21T22:51:46.931Z,4.70
2022-09-21T22:54:50.506Z,4.43
2022-09-21T22:57:54.057Z,5.53
2022-09-21T23:01:06.184Z,6.90
2022-09-21T23:04:13.945Z,5.27
2022-09-21T23:07:20.628Z,3.77
2022-09-21T23:10:26.951Z,4.03
2022-09-21T23:13:30.438Z,3.53
2022-09-21T23:16:34.516Z,4.67
2022-09-21T23:19:39.562Z,4.87
2022-09-21T23:22:43.092Z,4.00
2022-09-21T23:25:46.660Z,5.23
2022-09-21T23:28:54.706Z,4.37
2022-09-21T23:31:58.450Z,5.00
2022-09-21T23:35:03.466Z,4.33
2022-09-21T23:38:07.046Z,5.50
2022-09-21T23:41:14.346Z,5.53
2022-09-21T23:44:18.119Z,6.77
2022-09-21T23:47:21.872Z,5.17
2022-09-21T23:50:26.806Z,5.23
2022-09-21T23:53:31.782Z,4.97
2022-09-21T23:56:36.040Z,8.37
2022-09-21T23:59:39.787Z,5.97
